CheckWX is a tool to help pilots better visualize weather data.  It is not intended as a substitute for an official pre-flight weather briefing.

12:24:44 UTC

KFMH TAF
Cape Cod Coast Guard Air Station Airport
Falmouth, Massachusetts, USA
KFMH 221123Z 2212/2312 04012G25KT 2SM -RA BR OVC006 FM221900 30010G18KT P6SM OVC008 FM230100 26014G26KT P6SM BKN025 FM230600 26017G27KT 2SM -SHSN BR OVC020 FM231100 28018G32KT P6SM BKN025

Mar-22@
12:00 UTC

Mar-22 @ 12:00 UTC

Mar-22@
19:00 UTC

Mar-22 @ 19:00 UTC

KFMH 221123Z 2212/2312 04012G25KT 2SM -RA BR OVC006
Wind
  • 040° at 12 KTS
  • {Gusting to 25 KTS
Conditions
Light Rain, Mist
Cloud Levels
  • Overcast at 600' AGL

Mar-22@
19:00 UTC

Mar-22 @ 19:00 UTC

Mar-23@
01:00 UTC

Mar-23 @ 01:00 UTC

FM221900 30010G18KT P6SM OVC008

From

From Standard forecast or significant change

Wind
  • 300° at 10 KTS
  • {Gusting to 18 KTS
Cloud Levels
  • Overcast at 800' AGL

Mar-23@
01:00 UTC

Mar-23 @ 01:00 UTC

Mar-23@
06:00 UTC

Mar-23 @ 06:00 UTC

FM230100 26014G26KT P6SM BKN025

From

From Standard forecast or significant change

Wind
  • 260° at 14 KTS
  • {Gusting to 26 KTS
Cloud Levels
  • Broken at 2,500' AGL

Mar-23@
06:00 UTC

Mar-23 @ 06:00 UTC

Mar-23@
11:00 UTC

Mar-23 @ 11:00 UTC

FM230600 26017G27KT 2SM -SHSN BR OVC020

From

From Standard forecast or significant change

Wind
  • 260° at 17 KTS
  • {Gusting to 27 KTS
Conditions
Light Snow, Mist
Cloud Levels
  • Overcast at 2,000' AGL

Mar-23@
11:00 UTC

Mar-23 @ 11:00 UTC

Mar-23@
12:00 UTC

Mar-23 @ 12:00 UTC

FM231100 28018G32KT P6SM BKN025

From

From Standard forecast or significant change

Wind
  • 280° at 18 KTS
  • {Gusting to 32 KTS
Cloud Levels
  • Broken at 2,500' AGL